Time;durP1;ratioP1;P1;durP2;ratioP2;P2;SDS_P1;SDS_P2;PMS_P1;PMS_P2;Temp;Humidity;BMP_temperature;BMP_pressure;BME280_temperature;BME280_humidity;BME280_pressure;Samples;Min_cycle;Max_cycle;Signal;HPM_P1;HPM_P2
2023/04/11 00:02:33;;;;;;;12.05;10.77;;;;;;;;;;10291175;28;20151;-67
2023/04/11 00:07:33;;;;;;;10.77;9.75;;;;;;;;;;10291003;28;20071;-67
2023/04/11 00:12:31;;;;;;;12.73;10.07;;;;;;;;;;10288607;28;20068;-66
2023/04/11 00:17:30;;;;;;;12.05;10.95;;;;;;;;;;10291063;28;20080;-67
2023/04/11 00:22:29;;;;;;;12.93;11.68;;;;;;;;;;10289649;28;20498;-67
2023/04/11 00:27:29;;;;;;;14.15;11.43;;;;;;;;;;10287009;28;20080;-67
2023/04/11 00:32:27;;;;;;;12.40;11.20;;;;;;;;;;10287568;28;20502;-67
2023/04/11 00:37:25;;;;;;;13.70;12.30;;;;;;;;;;10290276;28;20068;-67
2023/04/11 00:42:24;;;;;;;15.23;13.65;;;;;;;;;;10290763;28;20068;-67
2023/04/11 00:47:23;;;;;;;18.10;13.65;;;;;;;;;;10288410;28;20302;-67
2023/04/11 00:52:22;;;;;;;15.90;14.35;;;;;;;;;;10292662;28;20071;-67
2023/04/11 00:57:21;;;;;;;17.23;15.45;;;;;;;;;;10296886;28;20557;-67
2023/04/11 01:02:19;;;;;;;16.95;15.10;;;;;;;;;;10290940;28;20089;-67
2023/04/11 01:07:22;;;;;;;18.35;14.27;;;;;;;;;;10288924;28;20083;-67
2023/04/11 01:12:20;;;;;;;19.08;15.93;;;;;;;;;;10292498;28;20065;-67
2023/04/11 01:17:20;;;;;;;21.05;16.20;;;;;;;;;;10288393;28;20073;-67
2023/04/11 01:22:22;;;;;;;18.42;16.23;;;;;;;;;;10287681;28;20076;-67
2023/04/11 01:27:22;;;;;;;17.88;16.08;;;;;;;;;;10293721;28;20049;-67
2023/04/11 01:32:20;;;;;;;18.52;16.20;;;;;;;;;;10293745;28;20048;-66
2023/04/11 01:37:19;;;;;;;19.65;17.50;;;;;;;;;;10291488;28;20068;-67
2023/04/11 01:42:17;;;;;;;24.42;18.17;;;;;;;;;;10289080;28;20063;-67
2023/04/11 01:47:17;;;;;;;20.48;17.38;;;;;;;;;;10289420;28;20071;-67
2023/04/11 01:52:15;;;;;;;18.85;16.83;;;;;;;;;;10288471;28;20095;-68
2023/04/11 01:57:13;;;;;;;21.42;19.10;;;;;;;;;;10288136;28;20072;-68
2023/04/11 02:02:12;;;;;;;21.95;19.67;;;;;;;;;;10291431;28;20069;-67
2023/04/11 02:07:11;;;;;;;23.73;19.73;;;;;;;;;;10286281;28;20061;-67
2023/04/11 02:12:10;;;;;;;22.00;19.83;;;;;;;;;;10288857;28;20064;-67
2023/04/11 02:17:09;;;;;;;24.50;21.15;;;;;;;;;;10287370;28;20539;-67
2023/04/11 02:22:08;;;;;;;23.73;21.02;;;;;;;;;;10289954;28;20064;-67
2023/04/11 02:27:07;;;;;;;22.55;20.33;;;;;;;;;;10286660;28;20485;-67
2023/04/11 02:32:05;;;;;;;25.80;22.90;;;;;;;;;;10292175;28;20095;-67
2023/04/11 02:37:04;;;;;;;29.80;24.40;;;;;;;;;;10294225;28;20088;-67
2023/04/11 02:42:04;;;;;;;25.98;22.58;;;;;;;;;;10287033;28;20299;-66
2023/04/11 02:47:04;;;;;;;27.38;22.58;;;;;;;;;;10282574;28;20073;-66
2023/04/11 02:52:02;;;;;;;25.48;22.77;;;;;;;;;;10293753;28;20104;-66
2023/04/11 02:57:02;;;;;;;23.52;21.02;;;;;;;;;;10284930;28;20140;-68
2023/04/11 03:02:01;;;;;;;25.90;19.67;;;;;;;;;;10297663;28;20083;-68
2023/04/11 03:07:02;;;;;;;24.05;21.35;;;;;;;;;;10293555;28;20083;-68
2023/04/11 03:12:01;;;;;;;23.98;20.65;;;;;;;;;;10290163;28;20486;-68
2023/04/11 03:17:00;;;;;;;25.23;21.45;;;;;;;;;;10284918;28;20517;-68
2023/04/11 03:22:04;;;;;;;28.27;22.52;;;;;;;;;;10282473;28;20080;-68
2023/04/11 03:27:02;;;;;;;25.65;21.73;;;;;;;;;;10283403;28;20075;-68
2023/04/11 03:32:01;;;;;;;28.85;22.38;;;;;;;;;;10285502;28;20080;-69
2023/04/11 03:37:05;;;;;;;25.55;22.85;;;;;;;;;;10287625;28;20091;-68
2023/04/11 03:42:06;;;;;;;26.83;22.80;;;;;;;;;;10299118;28;20109;-69
2023/04/11 03:47:05;;;;;;;27.05;24.08;;;;;;;;;;10295168;28;20056;-68
2023/04/11 03:52:13;;;;;;;25.40;22.23;;;;;;;;;;10289349;28;20083;-69
2023/04/11 03:57:13;;;;;;;25.67;22.92;;;;;;;;;;10289174;28;20506;-68
2023/04/11 04:02:11;;;;;;;26.90;22.63;;;;;;;;;;10293182;28;20060;-68
2023/04/11 04:07:20;;;;;;;29.70;24.17;;;;;;;;;;10296846;28;20398;-68
2023/04/11 04:12:21;;;;;;;29.95;22.45;;;;;;;;;;10299758;28;20049;-67
2023/04/11 04:17:40;;;;;;;29.35;22.80;;;;;;;;;;10289857;28;20105;-67
2023/04/11 04:22:46;;;;;;;23.95;21.33;;;;;;;;;;10291461;28;20077;-68
2023/04/11 04:27:47;;;;;;;22.15;19.75;;;;;;;;;;10292601;28;20641;-68
2023/04/11 04:32:45;;;;;;;20.60;16.80;;;;;;;;;;10289976;28;20071;-68
2023/04/11 04:37:45;;;;;;;18.63;16.30;;;;;;;;;;10292529;28;20075;-67
2023/04/11 04:43:00;;;;;;;19.15;16.95;;;;;;;;;;10290727;28;20052;-68
2023/04/11 04:48:12;;;;;;;26.92;20.95;;;;;;;;;;10292164;28;20081;-68
2023/04/11 04:53:10;;;;;;;25.13;20.98;;;;;;;;;;10290893;28;20075;-68
2023/04/11 04:58:16;;;;;;;32.50;27.50;;;;;;;;;;10296157;28;20082;-68
2023/04/11 05:03:19;;;;;;;75.57;53.35;;;;;;;;;;10289984;28;20088;-68
2023/04/11 05:08:20;;;;;;;33.22;27.33;;;;;;;;;;10290468;28;20070;-67
2023/04/11 05:13:20;;;;;;;20.05;17.95;;;;;;;;;;10287309;28;20036;-67
2023/04/11 05:18:18;;;;;;;20.88;18.70;;;;;;;;;;10289138;28;20087;-67
2023/04/11 05:23:16;;;;;;;30.42;24.83;;;;;;;;;;10289848;28;20068;-67
2023/04/11 05:28:15;;;;;;;24.33;18.90;;;;;;;;;;10304855;28;20041;-67
2023/04/11 05:33:17;;;;;;;31.80;23.90;;;;;;;;;;10289285;28;20510;-67
2023/04/11 05:38:16;;;;;;;22.10;19.80;;;;;;;;;;10286989;28;20087;-66
2023/04/11 05:43:15;;;;;;;20.90;18.20;;;;;;;;;;10298574;28;20072;-67
2023/04/11 05:48:15;;;;;;;19.80;15.13;;;;;;;;;;10292104;28;20526;-66
2023/04/11 05:53:13;;;;;;;21.00;17.08;;;;;;;;;;10290461;28;20110;-67
2023/04/11 05:58:11;;;;;;;19.67;17.55;;;;;;;;;;10287790;28;20084;-67
2023/04/11 06:03:10;;;;;;;17.17;13.30;;;;;;;;;;10288566;28;20691;-68
2023/04/11 06:08:10;;;;;;;20.55;15.80;;;;;;;;;;10286800;28;20085;-68
2023/04/11 06:13:09;;;;;;;20.65;14.98;;;;;;;;;;10283725;28;20083;-68
2023/04/11 06:18:07;;;;;;;16.10;14.50;;;;;;;;;;10288565;28;20068;-67
2023/04/11 06:23:05;;;;;;;19.60;15.25;;;;;;;;;;10291885;28;20068;-67
2023/04/11 06:28:05;;;;;;;17.98;14.52;;;;;;;;;;10294272;28;20854;-67
2023/04/11 06:33:03;;;;;;;47.33;36.60;;;;;;;;;;10297045;28;20068;-68
2023/04/11 06:38:01;;;;;;;32.75;23.42;;;;;;;;;;10293632;28;20072;-67
2023/04/11 06:43:00;;;;;;;19.15;15.90;;;;;;;;;;10297304;28;20105;-67
2023/04/11 06:48:00;;;;;;;23.50;19.90;;;;;;;;;;10295623;28;20076;-67
2023/04/11 06:52:58;;;;;;;18.30;15.80;;;;;;;;;;10295603;28;20065;-66
2023/04/11 06:57:56;;;;;;;30.98;22.33;;;;;;;;;;10296144;28;20073;-66
2023/04/11 07:02:54;;;;;;;25.55;21.02;;;;;;;;;;10293792;28;20060;-67
2023/04/11 07:07:54;;;;;;;25.52;20.08;;;;;;;;;;10295687;28;20475;-67
2023/04/11 07:12:52;;;;;;;19.20;15.82;;;;;;;;;;10295914;28;20068;-66
2023/04/11 07:17:51;;;;;;;19.55;15.55;;;;;;;;;;10293241;28;20069;-67
2023/04/11 07:22:51;;;;;;;16.70;15.00;;;;;;;;;;10288675;28;20513;-67
2023/04/11 07:27:51;;;;;;;23.70;16.50;;;;;;;;;;10294100;28;20080;-67
2023/04/11 07:32:50;;;;;;;17.25;15.40;;;;;;;;;;10290881;28;20068;-66
2023/04/11 07:37:48;;;;;;;16.75;14.80;;;;;;;;;;10294550;28;20091;-66
2023/04/11 07:42:46;;;;;;;20.02;15.30;;;;;;;;;;10295587;28;20526;-68
2023/04/11 07:47:45;;;;;;;21.13;17.20;;;;;;;;;;10291643;28;20064;-68
2023/04/11 07:52:44;;;;;;;19.23;15.55;;;;;;;;;;10293561;28;20064;-68
2023/04/11 07:57:42;;;;;;;18.73;12.27;;;;;;;;;;10291270;28;20123;-69
2023/04/11 08:02:40;;;;;;;14.73;11.00;;;;;;;;;;10291799;28;20068;-68
2023/04/11 08:07:40;;;;;;;21.00;13.95;;;;;;;;;;10291762;28;20119;-66
2023/04/11 08:12:38;;;;;;;12.95;11.55;;;;;;;;;;10289148;28;20072;-63
2023/04/11 08:17:42;;;;;;;19.38;16.83;;;;;;;;;;10287179;28;20064;-65
2023/04/11 08:22:45;;;;;;;30.10;21.30;;;;;;;;;;10294660;28;20077;-66
2023/04/11 08:27:43;;;;;;;32.97;28.73;;;;;;;;;;10290580;28;20075;-63
2023/04/11 08:32:42;;;;;;;25.63;20.20;;;;;;;;;;10288226;28;20068;-65
2023/04/11 08:37:40;;;;;;;14.75;12.10;;;;;;;;;;10291835;28;20110;-65
2023/04/11 08:42:39;;;;;;;27.70;21.70;;;;;;;;;;10291562;28;20087;-64
2023/04/11 08:47:38;;;;;;;29.20;22.20;;;;;;;;;;10287551;28;20071;-65
2023/04/11 08:52:37;;;;;;;14.55;12.25;;;;;;;;;;10288452;28;20072;-64
2023/04/11 08:57:37;;;;;;;16.13;13.88;;;;;;;;;;10292502;28;20512;-64
2023/04/11 09:02:53;;;;;;;14.75;13.25;;;;;;;;;;10281495;28;20139;-63
2023/04/11 09:07:52;;;;;;;21.80;18.15;;;;;;;;;;10292930;28;20068;-64
2023/04/11 09:12:50;;;;;;;16.30;12.98;;;;;;;;;;10286792;28;20075;-64
2023/04/11 09:17:50;;;;;;;18.27;14.35;;;;;;;;;;10286810;28;20366;-65
2023/04/11 09:22:49;;;;;;;17.08;14.30;;;;;;;;;;10290819;28;20075;-65
2023/04/11 09:27:47;;;;;;;17.35;13.60;;;;;;;;;;10288676;28;20075;-66
2023/04/11 09:32:47;;;;;;;16.10;14.43;;;;;;;;;;10290720;28;20442;-64
2023/04/11 09:37:48;;;;;;;28.73;21.83;;;;;;;;;;10286557;28;20077;-65
2023/04/11 09:42:46;;;;;;;15.35;12.98;;;;;;;;;;10287214;28;20088;-65
2023/04/11 09:47:45;;;;;;;20.05;15.25;;;;;;;;;;10289353;28;20068;-64
2023/04/11 09:52:44;;;;;;;8.27;5.93;;;;;;;;;;10287298;28;20080;-65
2023/04/11 09:57:45;;;;;;;8.30;4.80;;;;;;;;;;10296219;28;20084;-65
2023/04/11 10:02:44;;;;;;;8.82;5.63;;;;;;;;;;10293816;28;20079;-64
2023/04/11 10:07:45;;;;;;;5.95;4.10;;;;;;;;;;10296594;28;20096;-66
2023/04/11 10:12:45;;;;;;;6.63;5.95;;;;;;;;;;10288855;28;20080;-66
2023/04/11 10:18:04;;;;;;;8.43;4.90;;;;;;;;;;10294907;28;20099;-65
2023/04/11 10:23:02;;;;;;;8.48;4.72;;;;;;;;;;10292619;28;20068;-66
2023/04/11 10:28:03;;;;;;;5.20;4.70;;;;;;;;;;10297162;28;20072;-66
2023/04/11 10:33:19;;;;;;;6.38;4.85;;;;;;;;;;10295494;28;20185;-66
2023/04/11 10:38:41;;;;;;;4.53;3.83;;;;;;;;;;10295783;28;20088;-65
2023/04/11 10:43:41;;;;;;;7.10;3.95;;;;;;;;;;10297950;28;20494;-66
2023/04/11 10:48:55;;;;;;;10.10;4.75;;;;;;;;;;10294731;28;20076;-66
2023/04/11 10:53:54;;;;;;;6.72;4.60;;;;;;;;;;10291057;28;20080;-66
2023/04/11 10:58:55;;;;;;;15.00;8.27;;;;;;;;;;10295417;28;20544;-67
2023/04/11 11:03:55;;;;;;;7.65;5.32;;;;;;;;;;10296903;28;20068;-67
2023/04/11 11:08:54;;;;;;;6.60;4.28;;;;;;;;;;10294061;28;20502;-66
2023/04/11 11:13:54;;;;;;;14.25;7.07;;;;;;;;;;10296362;28;20041;-66
2023/04/11 11:18:57;;;;;;;11.43;8.40;;;;;;;;;;10294712;28;20077;-67
2023/04/11 11:23:56;;;;;;;11.20;9.05;;;;;;;;;;10293162;28;20064;-66
2023/04/11 11:28:55;;;;;;;11.30;8.55;;;;;;;;;;10296019;28;20086;-66
2023/04/11 11:33:55;;;;;;;11.88;10.55;;;;;;;;;;10294418;28;20485;-66
2023/04/11 11:39:11;;;;;;;17.88;13.38;;;;;;;;;;10293324;28;20080;-66
2023/04/11 11:44:20;;;;;;;9.27;7.78;;;;;;;;;;10295806;28;20490;-66
2023/04/11 11:49:20;;;;;;;13.70;8.48;;;;;;;;;;10293347;28;20076;-66
2023/04/11 11:54:18;;;;;;;15.07;8.68;;;;;;;;;;10292439;28;20076;-66
2023/04/11 11:59:26;;;;;;;7.20;5.97;;;;;;;;;;10293213;28;20087;-66
2023/04/11 12:04:26;;;;;;;8.25;5.60;;;;;;;;;;10292715;28;20076;-66
2023/04/11 12:09:30;;;;;;;13.95;9.70;;;;;;;;;;10292140;28;20091;-66
2023/04/11 12:14:29;;;;;;;7.63;6.93;;;;;;;;;;10291818;28;20052;-66
2023/04/11 12:19:28;;;;;;;8.35;7.45;;;;;;;;;;10289863;28;20075;-66
2023/04/11 12:24:27;;;;;;;7.57;6.82;;;;;;;;;;10292318;28;20467;-65
2023/04/11 12:29:25;;;;;;;10.77;8.07;;;;;;;;;;10287245;28;20103;-66
2023/04/11 12:34:23;;;;;;;7.55;6.80;;;;;;;;;;10291592;28;20080;-66
2023/04/11 12:39:23;;;;;;;10.32;8.85;;;;;;;;;;10291632;28;20091;-66
2023/04/11 12:44:29;;;;;;;8.88;7.97;;;;;;;;;;10327254;28;20390;-65
2023/04/11 12:49:27;;;;;;;12.80;8.93;;;;;;;;;;10324603;28;20068;-65
2023/04/11 12:54:25;;;;;;;7.82;7.03;;;;;;;;;;10326376;28;20087;-65
2023/04/11 12:59:25;;;;;;;35.92;26.52;;;;;;;;;;10324617;28;20047;-67
2023/04/11 13:04:24;;;;;;;11.73;9.80;;;;;;;;;;10322394;28;20083;-66
2023/04/11 13:09:23;;;;;;;10.25;8.52;;;;;;;;;;10325457;28;20080;-67
2023/04/11 13:14:21;;;;;;;7.22;6.63;;;;;;;;;;10324990;28;20076;-66
2023/04/11 13:19:20;;;;;;;12.63;11.32;;;;;;;;;;10325147;28;20083;-67
2023/04/11 13:24:20;;;;;;;83.28;46.35;;;;;;;;;;10324890;28;20082;-67
2023/04/11 13:29:18;;;;;;;17.05;15.23;;;;;;;;;;10322278;28;20072;-67
2023/04/11 13:34:16;;;;;;;21.23;18.98;;;;;;;;;;10307885;28;20158;-66
2023/04/11 13:39:14;;;;;;;14.00;12.63;;;;;;;;;;10325721;28;20064;-67
2023/04/11 13:44:14;;;;;;;21.77;15.18;;;;;;;;;;10323264;28;20064;-67
2023/04/11 13:49:12;;;;;;;19.65;14.40;;;;;;;;;;10322872;28;20068;-67
2023/04/11 13:54:10;;;;;;;15.85;11.55;;;;;;;;;;10301496;28;20072;-66
2023/04/11 13:59:08;;;;;;;11.48;9.98;;;;;;;;;;10297044;28;20068;-66
2023/04/11 14:04:08;;;;;;;11.73;10.52;;;;;;;;;;10297556;28;20072;-67
2023/04/11 14:09:06;;;;;;;10.93;9.82;;;;;;;;;;10293829;28;20450;-67
2023/04/11 14:14:05;;;;;;;17.55;14.38;;;;;;;;;;10293660;28;20071;-68
2023/04/11 14:19:03;;;;;;;17.73;14.23;;;;;;;;;;10295828;28;20073;-67
2023/04/11 14:24:02;;;;;;;13.85;12.25;;;;;;;;;;10296075;28;20069;-67
2023/04/11 14:29:01;;;;;;;14.77;13.27;;;;;;;;;;10294989;28;20080;-67
2023/04/11 14:33:59;;;;;;;28.38;21.52;;;;;;;;;;10296582;28;20036;-66
2023/04/11 14:38:57;;;;;;;24.17;15.43;;;;;;;;;;10296464;28;20430;-67
2023/04/11 14:43:58;;;;;;;18.20;15.57;;;;;;;;;;10294025;28;20495;-67
2023/04/11 14:48:56;;;;;;;14.57;12.95;;;;;;;;;;10296751;28;20688;-66
2023/04/11 14:53:54;;;;;;;17.17;15.52;;;;;;;;;;10292593;28;20072;-66
2023/04/11 14:58:54;;;;;;;20.52;17.70;;;;;;;;;;10291581;28;20090;-66
2023/04/11 15:03:54;;;;;;;15.43;13.98;;;;;;;;;;10292422;28;20088;-67
2023/04/11 15:08:52;;;;;;;18.20;14.50;;;;;;;;;;10293840;28;20079;-67
2023/04/11 15:13:51;;;;;;;22.38;17.45;;;;;;;;;;10295218;28;20553;-67
2023/04/11 15:18:50;;;;;;;18.17;16.42;;;;;;;;;;10290624;28;20075;-67
2023/04/11 15:23:50;;;;;;;15.68;14.07;;;;;;;;;;10281373;28;20073;-66
2023/04/11 15:28:49;;;;;;;28.02;21.85;;;;;;;;;;10288828;28;20083;-67
2023/04/11 15:33:48;;;;;;;17.65;16.05;;;;;;;;;;10292988;28;20068;-66
2023/04/11 15:38:46;;;;;;;15.60;14.02;;;;;;;;;;10274670;28;20065;-66
2023/04/11 15:43:45;;;;;;;16.42;14.70;;;;;;;;;;10276096;28;20492;-66
2023/04/11 15:48:43;;;;;;;14.85;12.65;;;;;;;;;;10279909;28;20492;-66
2023/04/11 15:53:42;;;;;;;19.52;16.17;;;;;;;;;;10287457;28;20073;-65
2023/04/11 15:58:40;;;;;;;20.52;17.75;;;;;;;;;;10284262;28;20064;-66
2023/04/11 16:03:40;;;;;;;26.45;22.80;;;;;;;;;;10284422;28;20104;-67
2023/04/11 16:08:39;;;;;;;37.08;27.75;;;;;;;;;;10246210;28;20072;-66
2023/04/11 16:13:37;;;;;;;28.08;22.02;;;;;;;;;;10288611;28;20067;-67
2023/04/11 16:18:35;;;;;;;20.40;16.45;;;;;;;;;;10283850;28;20103;-66
2023/04/11 16:23:34;;;;;;;31.90;21.30;;;;;;;;;;10280192;28;20068;-66
2023/04/11 16:28:33;;;;;;;25.95;21.80;;;;;;;;;;10292023;28;20083;-66
2023/04/11 16:33:31;;;;;;;16.63;13.55;;;;;;;;;;10289097;28;20498;-66
2023/04/11 16:38:29;;;;;;;17.92;15.23;;;;;;;;;;10279338;28;20065;-67
2023/04/11 16:43:28;;;;;;;19.55;16.17;;;;;;;;;;10282258;28;20483;-66
2023/04/11 16:48:27;;;;;;;13.23;11.88;;;;;;;;;;10286378;28;20080;-66
2023/04/11 16:53:25;;;;;;;24.00;19.40;;;;;;;;;;10285277;28;20467;-66
2023/04/11 16:58:23;;;;;;;13.00;11.57;;;;;;;;;;10291559;28;20114;-66
2023/04/11 17:03:23;;;;;;;15.48;13.40;;;;;;;;;;10277312;28;20073;-66
2023/04/11 17:08:21;;;;;;;21.05;18.95;;;;;;;;;;10282827;28;20068;-66
2023/04/11 17:13:19;;;;;;;17.45;15.63;;;;;;;;;;10283254;28;20076;-65
2023/04/11 17:18:17;;;;;;;16.15;14.45;;;;;;;;;;10274878;28;20065;-66
2023/04/11 17:23:17;;;;;;;17.50;15.80;;;;;;;;;;10280493;28;20095;-66
2023/04/11 17:28:23;;;;;;;13.93;11.38;;;;;;;;;;10285467;28;20060;-66
2023/04/11 17:33:22;;;;;;;11.88;10.73;;;;;;;;;;10282832;28;20072;-65
2023/04/11 17:38:22;;;;;;;12.65;11.45;;;;;;;;;;10290443;28;20072;-66
2023/04/11 17:43:20;;;;;;;11.85;10.55;;;;;;;;;;10294922;28;20084;-66
2023/04/11 17:48:19;;;;;;;14.35;11.45;;;;;;;;;;10290323;28;20075;-66
2023/04/11 17:53:17;;;;;;;15.35;13.38;;;;;;;;;;10287975;28;20075;-66
2023/04/11 17:58:17;;;;;;;13.15;11.85;;;;;;;;;;10289305;28;20069;-66
2023/04/11 18:03:15;;;;;;;11.65;10.38;;;;;;;;;;10294137;28;20080;-66
2023/04/11 18:08:14;;;;;;;12.18;10.98;;;;;;;;;;10290370;28;20458;-67
2023/04/11 18:13:12;;;;;;;9.82;8.82;;;;;;;;;;10295028;28;20072;-66
2023/04/11 18:18:11;;;;;;;10.55;9.10;;;;;;;;;;10291774;28;20072;-67
2023/04/11 18:23:10;;;;;;;12.50;11.20;;;;;;;;;;10288619;28;20072;-67
2023/04/11 18:28:08;;;;;;;15.30;13.10;;;;;;;;;;10284652;28;20443;-66
2023/04/11 18:33:06;;;;;;;14.05;12.40;;;;;;;;;;10279722;28;20072;-67
2023/04/11 18:38:06;;;;;;;16.00;12.88;;;;;;;;;;10281071;28;20528;-66
2023/04/11 18:43:04;;;;;;;13.50;12.15;;;;;;;;;;10294745;28;20131;-67
2023/04/11 18:48:02;;;;;;;24.13;17.52;;;;;;;;;;10292700;28;20076;-67
2023/04/11 18:53:01;;;;;;;15.32;13.32;;;;;;;;;;10273607;28;20064;-67
2023/04/11 18:58:04;;;;;;;15.50;13.77;;;;;;;;;;10285077;28;20524;-67
2023/04/11 19:03:13;;;;;;;18.55;14.98;;;;;;;;;;10281847;28;20080;-66
2023/04/11 19:08:12;;;;;;;17.13;14.57;;;;;;;;;;10283605;28;20076;-67
2023/04/11 19:13:11;;;;;;;28.20;24.08;;;;;;;;;;10285461;28;20465;-66
2023/04/11 19:18:10;;;;;;;27.50;22.30;;;;;;;;;;10290354;28;20072;-67
2023/04/11 19:23:08;;;;;;;20.40;15.82;;;;;;;;;;10288875;28;20087;-66
2023/04/11 19:28:06;;;;;;;21.30;18.30;;;;;;;;;;10280272;28;20076;-66
2023/04/11 19:33:06;;;;;;;25.85;21.33;;;;;;;;;;10283824;28;20097;-68
2023/04/11 19:38:05;;;;;;;26.58;22.92;;;;;;;;;;10279983;28;20498;-67
2023/04/11 19:43:03;;;;;;;18.52;16.63;;;;;;;;;;10292302;28;20083;-67
2023/04/11 19:48:01;;;;;;;42.28;33.10;;;;;;;;;;10292399;28;20529;-66
2023/04/11 19:53:01;;;;;;;18.70;14.23;;;;;;;;;;10291513;28;20120;-66
2023/04/11 19:57:59;;;;;;;19.30;17.23;;;;;;;;;;10289993;28;20073;-66
2023/04/11 20:02:57;;;;;;;14.18;12.68;;;;;;;;;;10291184;28;20068;-67
2023/04/11 20:07:56;;;;;;;12.43;10.60;;;;;;;;;;10287997;28;20076;-67
2023/04/11 20:12:55;;;;;;;13.52;12.18;;;;;;;;;;10288983;28;20080;-67
2023/04/11 20:17:53;;;;;;;14.88;11.73;;;;;;;;;;10284540;28;20076;-67
2023/04/11 20:22:52;;;;;;;38.88;26.00;;;;;;;;;;10291133;28;20087;-67
2023/04/11 20:27:50;;;;;;;31.25;23.27;;;;;;;;;;10292638;28;20163;-66
2023/04/11 20:32:50;;;;;;;28.50;20.58;;;;;;;;;;10289582;28;20068;-67
2023/04/11 20:37:48;;;;;;;80.45;51.47;;;;;;;;;;10286876;28;20477;-67
2023/04/11 20:42:48;;;;;;;21.30;17.20;;;;;;;;;;10287919;28;20217;-66
2023/04/11 20:47:48;;;;;;;24.27;18.73;;;;;;;;;;10290650;28;20036;-66
2023/04/11 20:52:51;;;;;;;33.70;24.10;;;;;;;;;;10290795;28;20075;-67
2023/04/11 20:57:49;;;;;;;76.05;50.60;;;;;;;;;;10290596;28;20548;-67
2023/04/11 21:02:48;;;;;;;25.83;18.48;;;;;;;;;;10292000;28;20083;-67
2023/04/11 21:07:48;;;;;;;40.25;31.13;;;;;;;;;;10299030;28;20458;-66
2023/04/11 21:12:50;;;;;;;19.60;15.25;;;;;;;;;;10297321;28;20068;-66
2023/04/11 21:17:48;;;;;;;24.00;16.08;;;;;;;;;;10295833;28;20087;-66
2023/04/11 21:22:51;;;;;;;21.73;15.82;;;;;;;;;;10295543;28;20372;-67
2023/04/11 21:27:49;;;;;;;15.02;12.25;;;;;;;;;;10294847;28;20084;-66
2023/04/11 21:32:48;;;;;;;38.63;24.98;;;;;;;;;;10297884;28;20080;-66
2023/04/11 21:37:46;;;;;;;27.85;18.08;;;;;;;;;;10297621;28;20088;-66
2023/04/11 21:42:47;;;;;;;68.90;41.97;;;;;;;;;;10294129;28;20472;-66
2023/04/11 21:47:46;;;;;;;71.15;41.63;;;;;;;;;;10295051;28;20083;-66
2023/04/11 21:52:45;;;;;;;18.38;16.00;;;;;;;;;;10295647;28;20056;-66
2023/04/11 21:57:43;;;;;;;16.25;14.60;;;;;;;;;;10296830;28;20071;-66
2023/04/11 22:02:45;;;;;;;17.88;14.95;;;;;;;;;;10297337;28;20069;-67
2023/04/11 22:07:46;;;;;;;15.85;14.20;;;;;;;;;;10295866;28;20084;-67
2023/04/11 22:12:45;;;;;;;22.00;18.33;;;;;;;;;;10296435;28;20076;-66
2023/04/11 22:17:49;;;;;;;24.02;19.83;;;;;;;;;;10279039;28;20091;-66
2023/04/11 22:22:47;;;;;;;15.52;13.95;;;;;;;;;;10293322;28;20076;-66
2023/04/11 22:27:46;;;;;;;35.72;27.77;;;;;;;;;;10294301;28;20080;-66
2023/04/11 22:32:45;;;;;;;20.52;17.83;;;;;;;;;;10294455;28;20072;-66
2023/04/11 22:37:44;;;;;;;19.67;15.93;;;;;;;;;;10295229;28;20494;-66
2023/04/11 22:42:42;;;;;;;30.30;21.85;;;;;;;;;;10294707;28;20079;-66
2023/04/11 22:47:44;;;;;;;21.80;17.13;;;;;;;;;;10295075;28;20076;-66
2023/04/11 22:52:44;;;;;;;27.15;21.98;;;;;;;;;;10293666;28;20075;-66
2023/04/11 22:57:44;;;;;;;60.13;39.80;;;;;;;;;;10292275;28;20305;-65
2023/04/11 23:02:42;;;;;;;34.00;28.48;;;;;;;;;;10290241;28;20068;-65
2023/04/11 23:07:41;;;;;;;17.92;16.00;;;;;;;;;;10292895;28;20104;-66
2023/04/11 23:12:40;;;;;;;24.08;20.75;;;;;;;;;;10294232;28;20072;-66
2023/04/11 23:17:39;;;;;;;29.15;23.83;;;;;;;;;;10292319;28;20499;-66
2023/04/11 23:22:37;;;;;;;28.02;23.88;;;;;;;;;;10291440;28;20138;-66
2023/04/11 23:27:35;;;;;;;32.95;29.35;;;;;;;;;;10291777;28;20115;-66
2023/04/11 23:32:35;;;;;;;36.45;29.40;;;;;;;;;;10293255;28;20061;-66
2023/04/11 23:37:33;;;;;;;25.73;21.52;;;;;;;;;;10294713;28;20065;-66
2023/04/11 23:42:31;;;;;;;17.77;15.98;;;;;;;;;;10291362;28;20487;-66
2023/04/11 23:47:29;;;;;;;25.35;21.80;;;;;;;;;;10290700;28;20075;-66
2023/04/11 23:52:29;;;;;;;24.35;21.75;;;;;;;;;;10292493;28;20064;-66
2023/04/11 23:57:28;;;;;;;18.98;15.48;;;;;;;;;;10291681;28;20476;-66
